Time;durP1;ratioP1;P1;durP2;ratioP2;P2;SDS_P1;SDS_P2;PMS_P1;PMS_P2;Temp;Humidity;BMP_temperature;BMP_pressure;BME280_temperature;BME280_humidity;BME280_pressure;Samples;Min_cycle;Max_cycle;Signal;HPM_P1;HPM_P2
2023/09/15 00:00:42;;;;;;;11.68;8.18;;;12.60;99.90;;;;;;6132479;22;90964;-70
2023/09/15 00:03:08;;;;;;;12.90;8.00;;;12.50;99.90;;;;;;6164301;22;91659;-70
2023/09/15 00:05:33;;;;;;;11.93;8.35;;;12.50;99.90;;;;;;6165082;22;87298;-69
2023/09/15 00:08:04;;;;;;;15.48;7.78;;;12.50;99.90;;;;;;6140901;22;87848;-70
2023/09/15 00:10:31;;;;;;;14.50;7.28;;;12.50;99.90;;;;;;6140215;22;88332;-69
2023/09/15 00:12:58;;;;;;;11.90;7.05;;;12.40;99.90;;;;;;6140625;22;88773;-69
2023/09/15 00:15:24;;;;;;;15.55;8.55;;;12.40;99.90;;;;;;6140294;22;87793;-69
2023/09/15 00:17:50;;;;;;;12.80;7.90;;;12.40;99.90;;;;;;6139637;22;88129;-70
2023/09/15 00:20:16;;;;;;;10.05;6.72;;;12.40;99.90;;;;;;6163002;22;91659;-69
2023/09/15 00:22:48;;;;;;;11.52;7.55;;;12.30;99.90;;;;;;6162712;22;90787;-69
2023/09/15 00:25:18;;;;;;;12.15;8.25;;;12.30;99.90;;;;;;6140031;22;87812;-69
2023/09/15 00:27:44;;;;;;;16.17;8.20;;;12.30;99.90;;;;;;6141579;22;87768;-70
2023/09/15 00:30:10;;;;;;;13.25;7.20;;;12.30;99.90;;;;;;6164600;22;90947;-70
2023/09/15 00:32:35;;;;;;;12.80;8.35;;;12.20;99.90;;;;;;6140455;22;87898;-68
2023/09/15 00:35:01;;;;;;;13.95;9.18;;;12.20;99.90;;;;;;6164325;22;87599;-69
2023/09/15 00:37:27;;;;;;;13.75;8.02;;;12.20;99.90;;;;;;6162662;22;90350;-70
2023/09/15 00:39:52;;;;;;;11.85;7.85;;;12.20;99.90;;;;;;6140755;22;89821;-69
2023/09/15 00:42:19;;;;;;;12.27;8.05;;;12.20;99.90;;;;;;6164484;22;91095;-69
2023/09/15 00:44:45;;;;;;;11.02;7.78;;;12.10;99.90;;;;;;6141037;22;87542;-70
2023/09/15 00:47:11;;;;;;;14.45;8.82;;;12.10;99.90;;;;;;6141075;22;89078;-69
2023/09/15 00:49:37;;;;;;;16.42;8.98;;;12.10;99.90;;;;;;6140394;22;88672;-69
2023/09/15 00:52:04;;;;;;;13.80;8.70;;;12.10;99.90;;;;;;6140421;22;87815;-70
2023/09/15 00:54:30;;;;;;;12.23;7.95;;;12.00;99.90;;;;;;6141330;22;87264;-68
2023/09/15 00:56:56;;;;;;;14.07;8.00;;;12.00;99.90;;;;;;6140445;22;87446;-69
2023/09/15 00:59:22;;;;;;;15.55;9.48;;;12.00;99.90;;;;;;6164145;22;91333;-69
2023/09/15 01:01:49;;;;;;;13.35;8.75;;;12.00;99.90;;;;;;6138991;22;88893;-69
2023/09/15 01:04:16;;;;;;;13.93;9.15;;;11.90;99.90;;;;;;6164580;22;87611;-69
2023/09/15 01:06:42;;;;;;;15.80;9.20;;;11.90;99.90;;;;;;6165381;22;89986;-68
2023/09/15 01:09:08;;;;;;;16.90;8.98;;;11.80;99.90;;;;;;6139312;22;88733;-69
2023/09/15 01:11:34;;;;;;;17.52;10.13;;;11.80;99.90;;;;;;6139133;22;87475;-69
2023/09/15 01:14:00;;;;;;;18.48;9.85;;;11.80;99.90;;;;;;6139652;22;87391;-69
2023/09/15 01:16:38;;;;;;;15.73;9.68;;;11.80;99.90;;;;;;6140716;22;87568;-68
2023/09/15 01:19:34;;;;;;;16.10;10.18;;;11.70;99.90;;;;;;6139455;22;90579;-70
2023/09/15 01:22:12;;;;;;;22.85;10.98;;;11.70;99.90;;;;;;6164085;22;89432;-70
2023/09/15 01:25:15;;;;;;;17.00;10.00;;;11.70;99.90;;;;;;6141031;22;87784;-69
2023/09/15 01:28:03;;;;;;;18.65;10.52;;;11.70;99.90;;;;;;6163635;22;93874;-69
2023/09/15 01:30:30;;;;;;;18.85;11.07;;;11.70;99.90;;;;;;6137774;22;95809;-70
2023/09/15 01:32:59;;;;;;;18.02;11.10;;;11.60;99.90;;;;;;6139131;22;87819;-69
2023/09/15 01:35:25;;;;;;;19.23;11.27;;;11.60;99.90;;;;;;6139877;22;87178;-69
2023/09/15 01:37:51;;;;;;;20.02;11.13;;;11.60;99.90;;;;;;6139870;22;87812;-70
2023/09/15 01:40:17;;;;;;;16.25;11.25;;;11.50;99.90;;;;;;6137804;22;88547;-68
2023/09/15 01:42:44;;;;;;;17.98;10.95;;;11.50;99.90;;;;;;6138412;22;91542;-69
2023/09/15 01:45:09;;;;;;;17.00;11.65;;;11.50;99.90;;;;;;6138600;22;87259;-68
2023/09/15 01:47:36;;;;;;;18.75;12.23;;;11.50;99.90;;;;;;6139013;22;89257;-69
2023/09/15 01:50:05;;;;;;;22.15;12.98;;;11.50;99.90;;;;;;6138804;22;88243;-68
2023/09/15 01:52:31;;;;;;;17.95;11.40;;;11.50;99.90;;;;;;6139407;22;88622;-68
2023/09/15 01:54:57;;;;;;;21.95;11.82;;;11.40;99.90;;;;;;6138463;22;87826;-70
2023/09/15 01:57:23;;;;;;;19.85;11.75;;;11.50;99.90;;;;;;6136117;22;89549;-70
2023/09/15 01:59:49;;;;;;;20.25;12.13;;;11.40;99.90;;;;;;6139146;22;88336;-68
2023/09/15 02:02:15;;;;;;;17.15;11.35;;;11.40;99.90;;;;;;6138911;22;88082;-68
2023/09/15 02:04:40;;;;;;;19.15;12.13;;;11.40;99.90;;;;;;6137711;22;87720;-69
2023/09/15 02:07:10;;;;;;;17.80;11.05;;;11.30;99.90;;;;;;6135054;22;90345;-69
2023/09/15 02:09:36;;;;;;;22.23;11.75;;;11.40;99.90;;;;;;6139109;22;91190;-69
2023/09/15 02:12:02;;;;;;;21.58;12.00;;;11.30;99.90;;;;;;6137519;22;90567;-68
2023/09/15 02:14:27;;;;;;;19.40;11.48;;;11.30;99.90;;;;;;6138047;22;87863;-68
2023/09/15 02:16:53;;;;;;;17.17;9.93;;;11.30;99.90;;;;;;6137516;22;88510;-68
2023/09/15 02:19:19;;;;;;;16.75;11.23;;;11.30;99.90;;;;;;6139235;22;88164;-69
2023/09/15 02:21:44;;;;;;;19.38;11.32;;;11.30;99.90;;;;;;6138806;22;90316;-69
2023/09/15 02:24:10;;;;;;;19.13;11.77;;;11.20;99.90;;;;;;6162758;22;87830;-70
2023/09/15 02:26:36;;;;;;;20.98;12.50;;;11.30;99.90;;;;;;6139729;22;87542;-69
2023/09/15 02:29:02;;;;;;;18.95;11.80;;;11.20;99.90;;;;;;6139220;22;87556;-69
2023/09/15 02:31:30;;;;;;;20.05;11.90;;;11.20;99.90;;;;;;6138093;22;91675;-68
2023/09/15 02:33:59;;;;;;;19.25;11.50;;;11.20;99.90;;;;;;6140601;22;87059;-69
2023/09/15 02:36:25;;;;;;;16.42;10.60;;;11.20;99.90;;;;;;6139270;22;90210;-69
2023/09/15 02:38:54;;;;;;;18.63;11.48;;;11.10;99.90;;;;;;6139524;22;88229;-69
2023/09/15 02:41:20;;;;;;;18.00;10.57;;;11.10;99.90;;;;;;6138434;22;89094;-69
2023/09/15 02:43:46;;;;;;;21.42;11.27;;;11.10;99.90;;;;;;6128976;22;87484;-68
2023/09/15 02:46:12;;;;;;;20.23;11.10;;;11.10;99.90;;;;;;6110238;22;87564;-69
2023/09/15 02:48:37;;;;;;;19.10;10.52;;;11.10;99.90;;;;;;6139495;22;88407;-69
2023/09/15 02:51:04;;;;;;;18.20;11.48;;;11.00;99.90;;;;;;6139202;22;88257;-68
2023/09/15 02:53:30;;;;;;;17.83;10.63;;;11.00;99.90;;;;;;6139847;22;87419;-70
2023/09/15 02:56:04;;;;;;;19.83;10.55;;;11.00;99.90;;;;;;6139656;22;87316;-69
2023/09/15 02:58:31;;;;;;;16.50;10.55;;;11.00;99.90;;;;;;6140013;22;87922;-69
2023/09/15 03:00:57;;;;;;;18.80;11.98;;;11.00;99.90;;;;;;6139233;22;87629;-69
2023/09/15 03:03:23;;;;;;;18.50;12.07;;;10.90;99.90;;;;;;6139527;22;87864;-69
2023/09/15 03:05:49;;;;;;;16.42;11.38;;;10.90;99.90;;;;;;6136708;22;90324;-69
2023/09/15 03:08:15;;;;;;;20.50;10.50;;;10.90;99.90;;;;;;6139132;22;88353;-68
2023/09/15 03:10:41;;;;;;;19.27;11.07;;;10.90;99.90;;;;;;6128564;22;89325;-69
2023/09/15 03:13:06;;;;;;;18.95;11.10;;;10.90;99.90;;;;;;6110218;22;88155;-70
2023/09/15 03:15:33;;;;;;;18.38;10.35;;;10.80;99.90;;;;;;6138396;22;87744;-69
2023/09/15 03:17:58;;;;;;;18.38;10.65;;;10.80;99.90;;;;;;6136930;22;91765;-69
2023/09/15 03:20:27;;;;;;;16.17;10.73;;;10.80;99.90;;;;;;6121257;22;91268;-70
2023/09/15 03:22:53;;;;;;;16.63;10.07;;;10.80;99.90;;;;;;6121712;22;87094;-69
2023/09/15 03:25:18;;;;;;;20.05;11.10;;;10.70;99.90;;;;;;6139449;22;87768;-68
2023/09/15 03:27:44;;;;;;;18.02;10.60;;;10.70;99.90;;;;;;6139991;22;91627;-69
2023/09/15 03:30:11;;;;;;;15.18;9.75;;;10.70;99.90;;;;;;6139864;22;88254;-68
2023/09/15 03:32:37;;;;;;;16.73;9.52;;;10.70;99.90;;;;;;6140844;22;87658;-69
2023/09/15 03:35:05;;;;;;;16.42;10.50;;;10.70;99.90;;;;;;6140346;22;87719;-68
2023/09/15 03:37:32;;;;;;;13.85;9.13;;;10.70;99.90;;;;;;6137064;22;91524;-69
2023/09/15 03:39:58;;;;;;;16.67;9.73;;;10.60;99.90;;;;;;6141655;22;89124;-69
2023/09/15 03:42:24;;;;;;;17.95;10.18;;;10.60;99.90;;;;;;6142158;22;87908;-69
2023/09/15 03:44:50;;;;;;;18.27;10.50;;;10.60;99.90;;;;;;6140797;22;87650;-69
2023/09/15 03:47:16;;;;;;;14.48;9.35;;;10.60;99.90;;;;;;6141145;22;87387;-69
2023/09/15 03:49:42;;;;;;;17.85;10.07;;;10.60;99.90;;;;;;6140603;22;87543;-70
2023/09/15 03:52:08;;;;;;;16.42;10.07;;;10.60;99.90;;;;;;6139552;22;88014;-69
2023/09/15 03:54:33;;;;;;;20.52;11.20;;;10.50;99.90;;;;;;6139003;22;89174;-69
2023/09/15 03:56:59;;;;;;;15.30;9.63;;;10.50;99.90;;;;;;6140503;22;88246;-68
2023/09/15 03:59:25;;;;;;;17.67;9.88;;;10.50;99.90;;;;;;6141191;22;87529;-69
2023/09/15 04:01:50;;;;;;;17.13;9.55;;;10.50;99.90;;;;;;6141203;22;87505;-69
2023/09/15 04:04:16;;;;;;;18.52;10.48;;;10.40;99.90;;;;;;6139520;22;87861;-69
2023/09/15 04:06:41;;;;;;;15.05;9.75;;;10.50;99.90;;;;;;6137833;22;91158;-68
2023/09/15 04:09:12;;;;;;;20.20;10.85;;;10.50;99.90;;;;;;6141189;22;88082;-70
2023/09/15 04:11:39;;;;;;;19.25;11.10;;;10.40;99.90;;;;;;6140880;22;87292;-69
2023/09/15 04:14:04;;;;;;;17.23;10.93;;;10.40;99.90;;;;;;6140641;22;87314;-69
2023/09/15 04:16:30;;;;;;;17.27;10.23;;;10.40;99.90;;;;;;6140012;22;88168;-69
2023/09/15 04:18:56;;;;;;;19.23;10.15;;;10.40;99.90;;;;;;6164605;22;90566;-69
2023/09/15 04:21:22;;;;;;;20.48;11.68;;;10.40;99.90;;;;;;6140474;22;87525;-68
2023/09/15 04:23:48;;;;;;;18.42;10.55;;;10.30;99.90;;;;;;6139898;22;87322;-70
2023/09/15 04:26:14;;;;;;;19.90;10.43;;;10.40;99.90;;;;;;6138231;22;91160;-70
2023/09/15 04:28:39;;;;;;;20.20;10.93;;;10.40;99.90;;;;;;6139374;22;87763;-69
2023/09/15 04:31:05;;;;;;;20.95;11.25;;;10.30;99.90;;;;;;6139904;22;87653;-69
2023/09/15 04:33:31;;;;;;;17.45;10.45;;;10.30;99.90;;;;;;6141354;22;87398;-69
2023/09/15 04:35:56;;;;;;;18.08;11.10;;;10.30;99.90;;;;;;6140284;22;88055;-69
2023/09/15 04:38:22;;;;;;;17.92;9.98;;;10.30;99.90;;;;;;6119862;22;90150;-69
2023/09/15 04:40:48;;;;;;;17.58;10.35;;;10.20;99.90;;;;;;6120405;22;87600;-69
2023/09/15 04:43:17;;;;;;;18.35;10.05;;;10.20;99.90;;;;;;6139653;22;88605;-69
2023/09/15 04:45:43;;;;;;;16.90;11.27;;;10.20;99.90;;;;;;6139836;22;91839;-69
2023/09/15 04:48:09;;;;;;;21.98;11.43;;;10.20;99.90;;;;;;6140319;22;87925;-69
2023/09/15 04:50:37;;;;;;;18.35;10.48;;;10.20;99.90;;;;;;6140783;22;87576;-69
2023/09/15 04:53:09;;;;;;;17.75;10.18;;;10.20;99.90;;;;;;6139782;22;87779;-69
2023/09/15 04:55:35;;;;;;;20.25;11.38;;;10.10;99.90;;;;;;6139830;22;87957;-69
2023/09/15 04:58:02;;;;;;;17.35;10.75;;;10.10;99.90;;;;;;6139528;22;87804;-70
2023/09/15 05:00:29;;;;;;;16.90;10.68;;;10.10;99.90;;;;;;6139915;22;87179;-69
2023/09/15 05:02:56;;;;;;;20.48;9.88;;;10.10;99.90;;;;;;6140255;22;87714;-69
2023/09/15 05:05:21;;;;;;;20.55;11.15;;;10.10;99.90;;;;;;6141163;22;88322;-69
2023/09/15 05:07:47;;;;;;;20.20;10.45;;;10.10;99.90;;;;;;6138486;22;88577;-69
2023/09/15 05:10:13;;;;;;;16.67;9.65;;;10.10;99.90;;;;;;6138576;22;88002;-69
2023/09/15 05:12:39;;;;;;;28.17;11.60;;;10.10;99.90;;;;;;6140286;22;87520;-70
2023/09/15 05:15:06;;;;;;;30.48;10.80;;;10.00;99.90;;;;;;6133434;22;91186;-68
2023/09/15 05:17:32;;;;;;;28.63;11.40;;;10.00;99.90;;;;;;6134817;22;89015;-69
2023/09/15 05:19:58;;;;;;;52.20;12.65;;;10.00;99.90;;;;;;6136045;22;87689;-69
2023/09/15 05:22:24;;;;;;;39.70;12.07;;;10.00;99.90;;;;;;6136738;22;90606;-69
2023/09/15 05:24:49;;;;;;;36.25;11.43;;;10.00;99.90;;;;;;6139033;22;90948;-70
2023/09/15 05:27:15;;;;;;;27.58;11.10;;;10.00;99.90;;;;;;6110946;22;90329;-69
2023/09/15 05:29:41;;;;;;;29.02;11.38;;;10.00;99.90;;;;;;6129970;22;87547;-69
2023/09/15 05:32:06;;;;;;;23.40;11.27;;;10.00;99.90;;;;;;6137702;22;90886;-70
2023/09/15 05:34:32;;;;;;;21.08;10.32;;;10.00;99.90;;;;;;6131600;22;90459;-70
2023/09/15 05:36:58;;;;;;;21.95;10.70;;;10.00;99.90;;;;;;6108934;23;87944;-70
2023/09/15 05:39:24;;;;;;;26.17;11.15;;;10.00;99.90;;;;;;6108338;23;87751;-70
2023/09/15 05:41:50;;;;;;;19.95;9.75;;;10.00;99.90;;;;;;6108561;23;90707;-68
2023/09/15 05:44:18;;;;;;;24.67;11.18;;;10.00;99.90;;;;;;6125544;22;91835;-69
2023/09/15 05:46:44;;;;;;;18.23;10.05;;;10.00;99.90;;;;;;6141004;22;88542;-70
2023/09/15 05:49:10;;;;;;;35.83;11.35;;;10.00;99.90;;;;;;6139996;22;87041;-70
2023/09/15 05:51:36;;;;;;;31.50;11.07;;;10.10;99.90;;;;;;6141909;22;87524;-70
2023/09/15 05:54:02;;;;;;;32.90;11.57;;;10.10;99.90;;;;;;6112147;22;91084;-70
2023/09/15 05:56:29;;;;;;;35.55;11.60;;;10.20;99.90;;;;;;6107753;23;91353;-69
2023/09/15 05:58:55;;;;;;;25.23;10.98;;;10.10;99.90;;;;;;6121531;22;87844;-70
2023/09/15 06:01:21;;;;;;;29.48;11.23;;;10.20;99.90;;;;;;6139935;22;87892;-70
2023/09/15 06:03:48;;;;;;;35.15;12.43;;;10.20;99.90;;;;;;6140478;22;88366;-68
2023/09/15 06:06:18;;;;;;;24.80;12.23;;;10.30;99.90;;;;;;6139655;22;88927;-69
2023/09/15 06:08:43;;;;;;;25.73;12.45;;;10.30;99.90;;;;;;6139429;22;87473;-69
2023/09/15 06:11:09;;;;;;;24.52;12.25;;;10.40;99.90;;;;;;6139251;22;87789;-69
2023/09/15 06:13:37;;;;;;;24.42;12.30;;;10.50;99.90;;;;;;6140151;22;87286;-69
2023/09/15 06:16:06;;;;;;;30.08;12.05;;;10.50;99.90;;;;;;6138904;22;87698;-68
2023/09/15 06:18:32;;;;;;;31.00;12.75;;;10.60;99.90;;;;;;6139621;22;87673;-69
2023/09/15 06:20:57;;;;;;;40.85;14.52;;;10.70;99.90;;;;;;6140008;22;88869;-69
2023/09/15 06:23:24;;;;;;;36.13;12.80;;;10.80;99.90;;;;;;6140304;22;88032;-69
2023/09/15 06:25:51;;;;;;;23.88;13.05;;;10.90;99.90;;;;;;6139799;22;88636;-69
2023/09/15 06:28:17;;;;;;;28.00;12.82;;;11.00;99.90;;;;;;6139173;22;88077;-70
2023/09/15 06:30:43;;;;;;;25.88;12.10;;;11.10;99.90;;;;;;6139720;22;90185;-69
2023/09/15 06:33:08;;;;;;;23.05;13.43;;;11.20;99.90;;;;;;6141031;22;88802;-69
2023/09/15 06:35:34;;;;;;;24.15;13.38;;;11.30;99.90;;;;;;6138925;22;91528;-69
2023/09/15 06:38:01;;;;;;;22.35;13.18;;;11.40;99.90;;;;;;6126650;22;87335;-69
2023/09/15 06:40:26;;;;;;;27.25;13.88;;;11.50;99.90;;;;;;6108539;23;90213;-70
2023/09/15 06:42:52;;;;;;;23.80;14.02;;;11.70;99.90;;;;;;6110103;23;88258;-70
2023/09/15 06:45:18;;;;;;;22.40;13.20;;;11.70;99.90;;;;;;6137437;22;88675;-70
2023/09/15 06:47:43;;;;;;;29.13;13.77;;;11.80;99.90;;;;;;6137358;22;87405;-71
2023/09/15 06:50:09;;;;;;;22.85;13.50;;;12.00;99.90;;;;;;6137983;22;90588;-70
2023/09/15 06:52:35;;;;;;;26.27;14.02;;;12.10;99.90;;;;;;6141281;22;88523;-71
2023/09/15 06:55:01;;;;;;;20.80;13.00;;;12.20;99.90;;;;;;6140599;22;87651;-71
2023/09/15 06:57:26;;;;;;;22.63;13.30;;;12.30;99.90;;;;;;6140528;22;88032;-71
2023/09/15 06:59:52;;;;;;;27.45;13.27;;;12.40;99.90;;;;;;6116480;22;88811;-71
2023/09/15 07:02:18;;;;;;;24.02;13.63;;;12.60;99.90;;;;;;6110079;23;88935;-70
2023/09/15 07:04:44;;;;;;;21.50;12.95;;;12.70;99.90;;;;;;6120854;22;87906;-69
2023/09/15 07:07:12;;;;;;;21.35;13.63;;;12.80;99.90;;;;;;6141772;22;87815;-69
2023/09/15 07:09:38;;;;;;;28.15;13.48;;;12.90;99.90;;;;;;6140555;22;88659;-71
2023/09/15 07:12:04;;;;;;;23.38;13.23;;;13.00;99.90;;;;;;6112333;22;91511;-71
2023/09/15 07:14:30;;;;;;;21.98;12.70;;;13.10;99.90;;;;;;6128309;22;89475;-70
2023/09/15 07:16:56;;;;;;;25.42;12.98;;;13.20;99.90;;;;;;6141737;22;87828;-69
2023/09/15 07:19:21;;;;;;;19.70;11.02;;;13.30;99.90;;;;;;6141315;22;89609;-70
2023/09/15 07:21:47;;;;;;;25.92;12.25;;;13.40;99.90;;;;;;6143110;22;89216;-70
2023/09/15 07:24:13;;;;;;;17.25;10.02;;;13.50;99.90;;;;;;6141188;22;89721;-68
2023/09/15 07:26:38;;;;;;;19.58;10.32;;;13.60;99.90;;;;;;6141682;22;87125;-69
2023/09/15 07:29:04;;;;;;;18.58;11.43;;;13.70;99.90;;;;;;6140052;22;87719;-72
2023/09/15 07:31:36;;;;;;;20.05;10.90;;;13.80;99.90;;;;;;6141253;22;88482;-69
2023/09/15 07:34:03;;;;;;;16.08;9.30;;;13.90;99.90;;;;;;6140746;22;88746;-72
2023/09/15 07:36:29;;;;;;;14.15;9.02;;;14.10;99.90;;;;;;6141537;22;87803;-71
2023/09/15 07:38:55;;;;;;;16.38;9.00;;;14.10;99.90;;;;;;6142565;22;87642;-69
2023/09/15 07:41:20;;;;;;;15.13;9.00;;;14.20;99.90;;;;;;6142487;22;88561;-69
2023/09/15 07:43:46;;;;;;;16.73;9.15;;;14.30;99.90;;;;;;6142489;22;87795;-70
2023/09/15 07:46:14;;;;;;;14.00;8.73;;;14.50;99.90;;;;;;6141755;22;87825;-71
2023/09/15 07:48:43;;;;;;;13.27;7.95;;;14.60;99.90;;;;;;6141593;22;87485;-70
2023/09/15 07:51:11;;;;;;;12.93;7.63;;;14.70;99.90;;;;;;6141667;22;87044;-71
2023/09/15 07:53:36;;;;;;;16.83;7.75;;;14.80;99.90;;;;;;6140994;22;87720;-72
2023/09/15 07:56:02;;;;;;;17.27;7.20;;;14.90;99.90;;;;;;6141895;22;87992;-71
2023/09/15 07:58:28;;;;;;;12.00;8.00;;;15.00;99.90;;;;;;6140811;22;88761;-70
2023/09/15 08:00:57;;;;;;;13.82;8.05;;;15.00;99.90;;;;;;6138904;22;92889;-71
2023/09/15 08:03:23;;;;;;;15.10;7.32;;;15.10;99.90;;;;;;6140690;22;88235;-69
2023/09/15 08:05:48;;;;;;;12.10;7.32;;;15.20;99.90;;;;;;6140885;22;87622;-71
2023/09/15 08:08:14;;;;;;;14.88;7.00;;;15.40;99.90;;;;;;6165940;22;90710;-69
2023/09/15 08:10:40;;;;;;;12.77;7.78;;;15.50;99.90;;;;;;6139271;22;87827;-69
2023/09/15 08:13:05;;;;;;;11.85;7.50;;;15.60;99.90;;;;;;6141086;22;87610;-69
2023/09/15 08:15:31;;;;;;;15.88;7.18;;;15.60;99.90;;;;;;6142961;22;87753;-69
2023/09/15 08:17:57;;;;;;;14.25;7.43;;;15.80;99.90;;;;;;6141199;22;87805;-68
2023/09/15 08:20:24;;;;;;;9.63;6.75;;;15.90;99.90;;;;;;6141349;22;88184;-71
2023/09/15 08:22:50;;;;;;;12.20;6.30;;;16.00;99.90;;;;;;6140352;22;90104;-69
2023/09/15 08:25:16;;;;;;;10.82;6.28;;;16.10;99.90;;;;;;6165591;22;87602;-72
2023/09/15 08:27:44;;;;;;;11.60;7.22;;;16.20;99.90;;;;;;6140827;22;90333;-69
2023/09/15 08:30:10;;;;;;;11.25;6.20;;;16.30;99.90;;;;;;6142292;22;89372;-70
2023/09/15 08:32:36;;;;;;;13.48;6.00;;;16.40;99.90;;;;;;6164526;22;90849;-70
2023/09/15 08:35:06;;;;;;;10.70;7.15;;;16.60;99.90;;;;;;6141290;22;87543;-70
2023/09/15 08:37:31;;;;;;;10.93;6.03;;;16.70;99.90;;;;;;6132047;22;88905;-70
2023/09/15 08:39:57;;;;;;;9.75;5.15;;;16.80;99.90;;;;;;6163281;22;87684;-68
2023/09/15 08:42:33;;;;;;;9.85;5.28;;;17.00;99.90;;;;;;6145263;22;89747;-70
2023/09/15 08:45:07;;;;;;;8.55;5.00;;;17.10;99.90;;;;;;6142999;22;87192;-69
2023/09/15 08:47:35;;;;;;;7.28;4.80;;;17.20;99.90;;;;;;6142340;22;89563;-71
2023/09/15 08:50:04;;;;;;;9.77;4.57;;;17.40;99.70;;;;;;6145442;22;87654;-70
2023/09/15 08:52:31;;;;;;;8.70;4.30;;;17.50;99.70;;;;;;6169528;22;91700;-69
2023/09/15 08:54:56;;;;;;;11.73;5.20;;;17.60;99.80;;;;;;6146959;22;87525;-69
2023/09/15 08:57:24;;;;;;;8.90;4.70;;;17.80;99.90;;;;;;6145855;22;87573;-72
2023/09/15 08:59:51;;;;;;;8.68;4.07;;;17.90;98.20;;;;;;6120897;22;91396;-70
2023/09/15 09:02:17;;;;;;;9.90;4.68;;;18.10;98.40;;;;;;6128585;22;87815;-69
2023/09/15 09:04:42;;;;;;;10.27;4.78;;;18.20;98.60;;;;;;6144429;22;87190;-72
2023/09/15 09:07:08;;;;;;;10.95;3.95;;;18.40;97.70;;;;;;6143542;22;87652;-73
2023/09/15 09:09:36;;;;;;;7.32;4.35;;;18.50;97.20;;;;;;6143661;22;87863;-72
2023/09/15 09:12:03;;;;;;;10.75;5.05;;;18.70;97.60;;;;;;6139604;22;91318;-70
2023/09/15 09:14:28;;;;;;;12.20;3.88;;;18.90;97.80;;;;;;6140987;22;87559;-71
2023/09/15 09:16:55;;;;;;;7.00;3.50;;;19.10;97.60;;;;;;6141199;22;87492;-71
2023/09/15 09:19:20;;;;;;;4.90;3.28;;;19.30;96.50;;;;;;6140487;22;88071;-69
2023/09/15 09:21:46;;;;;;;13.23;3.88;;;19.40;96.90;;;;;;6140493;22;88195;-70
2023/09/15 09:24:12;;;;;;;6.63;3.75;;;19.60;95.70;;;;;;6145298;22;87371;-77
2023/09/15 09:27:15;;;;;;;9.63;3.53;;;19.70;94.90;;;;;;6157157;22;89814;-78
2023/09/15 09:29:41;;;;;;;5.50;3.00;;;19.90;94.80;;;;;;6163000;22;87507;-77
2023/09/15 09:32:14;;;;;;;7.78;3.55;;;20.10;95.90;;;;;;6161787;22;87184;-77
2023/09/15 09:34:39;;;;;;;;;;;20.30;96.30;;;;;;6163702;22;86894;-77
2023/09/15 09:37:55;;;;;;;7.40;3.63;;;20.50;94.30;;;;;;6161759;22;89231;-76
2023/09/15 09:40:23;;;;;;;9.77;3.65;;;20.70;94.00;;;;;;6162888;22;88061;-77
2023/09/15 09:43:17;;;;;;;12.15;3.50;;;20.90;93.20;;;;;;6163534;22;87386;-77
2023/09/15 09:45:49;;;;;;;10.70;3.75;;;21.10;94.10;;;;;;6160909;22;87058;-77
2023/09/15 09:48:15;;;;;;;5.82;3.17;;;21.40;93.00;;;;;;6161994;22;87303;-77
2023/09/15 09:50:54;;;;;;;7.85;3.47;;;21.50;91.70;;;;;;6162793;22;88045;-77
2023/09/15 09:53:36;;;;;;;8.93;3.83;;;21.70;91.30;;;;;;6160272;22;89531;-77
2023/09/15 09:56:04;;;;;;;13.35;4.00;;;21.80;90.20;;;;;;6164300;22;86236;-77
2023/09/15 09:58:44;;;;;;;23.83;3.88;;;21.90;90.10;;;;;;6162722;22;87021;-77
2023/09/15 10:01:11;;;;;;;4.97;3.35;;;22.10;91.30;;;;;;6161880;22;90363;-77
2023/09/15 10:04:00;;;;;;;7.25;2.92;;;22.40;91.80;;;;;;6163159;22;87980;-78
2023/09/15 10:29:31;;;;;;;7.82;2.67;;;24.30;81.60;;;;;;6165637;22;87441;-81
2023/09/15 10:32:03;;;;;;;4.90;2.40;;;24.70;84.30;;;;;;6150196;22;87644;-84
2023/09/15 10:34:29;;;;;;;4.75;2.58;;;24.90;84.40;;;;;;6150759;22;88417;-79
2023/09/15 10:36:59;;;;;;;6.18;2.17;;;25.10;85.80;;;;;;6152039;22;88024;-79
2023/09/15 10:39:35;;;;;;;4.60;2.40;;;25.40;84.40;;;;;;6152659;22;92240;-83
2023/09/15 10:42:05;;;;;;;3.40;2.05;;;25.70;84.70;;;;;;6174659;22;87708;-81
2023/09/15 10:44:31;;;;;;;9.10;3.03;;;25.90;83.80;;;;;;6159676;22;91088;-78
2023/09/15 10:46:57;;;;;;;5.65;2.63;;;26.10;77.80;;;;;;6150459;22;92585;-82
2023/09/15 10:49:28;;;;;;;5.63;2.63;;;26.20;79.20;;;;;;6153250;22;87697;-79
2023/09/15 10:51:59;;;;;;;5.63;2.13;;;26.30;79.70;;;;;;6155160;22;86295;-79
2023/09/15 10:54:32;;;;;;;5.78;2.10;;;26.50;80.90;;;;;;6151412;22;92635;-80
2023/09/15 10:56:59;;;;;;;5.32;2.40;;;26.80;80.60;;;;;;6144271;22;89476;-82
2023/09/15 10:59:26;;;;;;;6.35;2.22;;;27.10;80.10;;;;;;6145503;22;88795;-78
2023/09/15 11:01:52;;;;;;;5.90;2.30;;;27.40;78.20;;;;;;6153142;22;87957;-76
2023/09/15 11:04:21;;;;;;;5.15;2.30;;;27.70;77.60;;;;;;6145976;22;88762;-79
2023/09/15 11:06:51;;;;;;;3.53;1.80;;;28.00;76.70;;;;;;6147515;22;88998;-79
2023/09/15 11:09:18;;;;;;;9.57;2.20;;;28.20;74.80;;;;;;6145920;22;88407;-77
2023/09/15 11:11:48;;;;;;;5.13;2.22;;;28.40;74.80;;;;;;6146626;22;87477;-82
2023/09/15 11:14:20;;;;;;;6.45;2.70;;;28.60;74.20;;;;;;6145778;22;87479;-85
2023/09/15 11:16:49;;;;;;;5.67;2.03;;;28.60;62.80;;;;;;6148511;22;87373;-78
2023/09/15 11:21:40;;;;;;;3.88;1.98;;;28.80;70.80;;;;;;6120736;22;87275;-82
2023/09/15 11:24:10;;;;;;;5.93;2.30;;;28.90;70.70;;;;;;6145749;22;89332;-81
2023/09/15 11:26:43;;;;;;;8.38;2.30;;;29.10;69.80;;;;;;6145634;22;90442;-77
2023/09/15 11:29:10;;;;;;;3.78;1.95;;;29.20;64.50;;;;;;6146951;22;88323;-80
2023/09/15 11:31:42;;;;;;;11.50;3.10;;;29.20;65.00;;;;;;6131780;22;87822;-78
2023/09/15 11:34:17;;;;;;;5.55;2.38;;;29.30;65.10;;;;;;6140819;22;87778;-80
2023/09/15 11:36:59;;;;;;;5.43;1.95;;;29.40;65.20;;;;;;6143226;22;88733;-78
2023/09/15 11:39:29;;;;;;;5.10;1.88;;;29.50;63.10;;;;;;6137956;22;92173;-78
2023/09/15 11:41:56;;;;;;;7.00;2.20;;;29.50;61.50;;;;;;6140093;22;86785;-80
2023/09/15 11:44:30;;;;;;;5.00;2.25;;;29.60;65.70;;;;;;6140407;22;88733;-79
2023/09/15 11:46:59;;;;;;;5.10;2.35;;;29.80;60.50;;;;;;6143816;22;89579;-79
2023/09/15 11:49:26;;;;;;;4.00;1.90;;;30.00;64.00;;;;;;6140338;22;89641;-75
2023/09/15 11:51:57;;;;;;;6.25;2.55;;;30.30;65.60;;;;;;6144277;22;87515;-80
2023/09/15 11:54:24;;;;;;;10.40;1.52;;;30.50;60.70;;;;;;6171495;22;89353;-81
2023/09/15 11:56:52;;;;;;;4.55;1.65;;;30.70;63.80;;;;;;6166159;22;89074;-80
2023/09/15 11:59:20;;;;;;;5.05;2.03;;;31.00;63.90;;;;;;6173078;22;90416;-80
2023/09/15 12:01:48;;;;;;;3.50;1.52;;;31.30;59.70;;;;;;6173281;22;88051;-78
2023/09/15 12:04:15;;;;;;;2.88;1.63;;;31.40;62.50;;;;;;6171783;22;89389;-77
2023/09/15 12:06:42;;;;;;;4.30;1.95;;;31.70;59.70;;;;;;6177062;22;91203;-81
2023/09/15 12:09:12;;;;;;;5.50;1.42;;;31.90;57.40;;;;;;6168141;22;88931;-80
2023/09/15 12:11:45;;;;;;;2.72;1.33;;;32.00;56.50;;;;;;6171651;22;88057;-78
2023/09/15 12:14:20;;;;;;;4.95;1.50;;;32.00;57.40;;;;;;6171549;22;89756;-82
2023/09/15 12:16:47;;;;;;;1.75;1.20;;;31.90;57.40;;;;;;6172933;22;87800;-79
2023/09/15 12:19:16;;;;;;;2.33;1.17;;;32.00;56.40;;;;;;6173167;22;87895;-80
2023/09/15 12:21:59;;;;;;;3.70;1.50;;;32.10;57.10;;;;;;6175919;22;87540;-77
2023/09/15 12:24:25;;;;;;;4.15;1.20;;;32.30;56.50;;;;;;6170306;22;87598;-82
2023/09/15 12:26:52;;;;;;;3.35;1.30;;;32.50;56.10;;;;;;6172169;22;90421;-77
2023/09/15 12:29:18;;;;;;;4.03;1.80;;;32.50;54.40;;;;;;6171469;22;90337;-80
2023/09/15 12:31:51;;;;;;;3.92;1.58;;;32.60;55.70;;;;;;6173677;22;86878;-79
2023/09/15 12:34:20;;;;;;;3.90;1.50;;;32.80;54.80;;;;;;6173234;22;88512;-82
2023/09/15 12:36:53;;;;;;;3.00;1.08;;;32.90;51.80;;;;;;6175903;22;90587;-83
2023/09/15 12:39:21;;;;;;;1.95;1.17;;;33.00;52.90;;;;;;6172055;22;90208;-83
2023/09/15 12:41:58;;;;;;;2.75;1.38;;;33.00;52.20;;;;;;6175489;22;88116;-80
2023/09/15 12:44:25;;;;;;;2.65;1.10;;;33.20;53.90;;;;;;6174760;22;87689;-77
2023/09/15 12:46:52;;;;;;;4.55;1.65;;;33.40;52.60;;;;;;6172886;22;90290;-76
2023/09/15 12:49:18;;;;;;;4.38;1.10;;;33.50;51.20;;;;;;6162846;22;90717;-80
2023/09/15 12:51:44;;;;;;;3.35;1.20;;;33.70;49.50;;;;;;6177075;22;87614;-85
2023/09/15 12:54:11;;;;;;;4.63;1.30;;;33.70;50.40;;;;;;6174757;22;87856;-83
2023/09/15 12:56:40;;;;;;;2.95;1.52;;;33.90;51.90;;;;;;6177127;22;87202;-80
2023/09/15 12:59:09;;;;;;;1.92;1.13;;;34.20;48.10;;;;;;6165734;22;87491;-76
2023/09/15 13:01:39;;;;;;;3.97;1.33;;;34.30;46.30;;;;;;6168103;22;87982;-79
2023/09/15 13:04:07;;;;;;;5.43;1.60;;;34.50;48.30;;;;;;6165994;22;89445;-78